Time;durP1;ratioP1;P1;durP2;ratioP2;P2;SDS_P1;SDS_P2;PMS_P1;PMS_P2;Temp;Humidity;BMP_temperature;BMP_pressure;BME280_temperature;BME280_humidity;BME280_pressure;Samples;Min_cycle;Max_cycle;Signal;HPM_P1;HPM_P2
2022/06/02 00:04:15;;;;;;;8.27;2.90;;;;;;;21.34;90.84;100422.25;5038919;28;20109;-85
2022/06/02 00:07:19;;;;;;;9.68;2.78;;;;;;;21.32;90.65;100424.34;5036689;28;20045;-83
2022/06/02 00:10:04;;;;;;;9.25;2.92;;;;;;;21.21;90.25;100420.59;4969094;28;20044;-84
2022/06/02 00:12:38;;;;;;;6.63;2.75;;;;;;;21.21;90.00;100427.88;5024989;28;20048;-82
2022/06/02 00:15:26;;;;;;;7.57;2.90;;;;;;;21.29;89.17;100424.81;5029046;28;20029;-83
2022/06/02 00:18:22;;;;;;;7.93;2.50;;;;;;;21.33;86.92;100428.69;5030823;28;20034;-82
2022/06/02 00:21:18;;;;;;;6.78;2.50;;;;;;;21.39;87.38;100415.09;5027313;28;20145;-82
2022/06/02 00:24:15;;;;;;;7.32;2.70;;;;;;;21.37;87.28;100421.78;5028370;28;20109;-84
2022/06/02 00:27:02;;;;;;;7.75;2.30;;;;;;;21.24;86.98;100422.84;5025030;28;20038;-80
2022/06/02 00:29:49;;;;;;;4.93;2.45;;;;;;;21.12;88.78;100422.81;5040276;28;20104;-81
2022/06/02 00:32:41;;;;;;;6.30;2.28;;;;;;;21.09;87.64;100425.97;4996364;28;20084;-84
2022/06/02 00:35:27;;;;;;;7.53;2.55;;;;;;;21.11;87.15;100429.25;5029596;28;20052;-84
2022/06/02 00:38:05;;;;;;;9.85;2.75;;;;;;;20.92;87.90;100429.53;5028939;28;20056;-85
2022/06/02 00:40:37;;;;;;;4.88;2.10;;;;;;;20.79;87.04;100433.28;5013557;28;20064;-84
2022/06/02 00:43:30;;;;;;;5.70;2.45;;;;;;;20.82;86.17;100430.09;5030090;28;20098;-84
2022/06/02 00:46:23;;;;;;;8.15;2.65;;;;;;;20.77;86.05;100432.69;5027286;28;20518;-84
2022/06/02 00:49:22;;;;;;;7.32;2.22;;;;;;;20.67;85.76;100429.72;5030684;28;20042;-83
2022/06/02 00:51:59;;;;;;;6.87;1.93;;;;;;;20.73;85.54;100423.41;5011195;28;20046;-83
2022/06/02 00:58:15;;;;;;;10.93;2.10;;;;;;;20.87;85.81;100422.16;5025472;28;20356;-81
2022/06/02 01:00:46;;;;;;;6.38;1.95;;;;;;;21.04;84.19;100412.38;5028287;28;20034;-80
2022/06/02 01:03:19;;;;;;;5.95;1.77;;;;;;;21.08;84.34;100418.91;5026456;28;20058;-84
2022/06/02 01:06:13;;;;;;;9.30;2.60;;;;;;;20.87;84.81;100415.97;5027982;28;20038;-83
2022/06/02 01:09:12;;;;;;;6.47;2.20;;;;;;;20.87;84.55;100414.09;5031179;28;20089;-82
2022/06/02 01:11:50;;;;;;;5.32;2.42;;;;;;;20.79;85.94;100414.41;5015995;28;20041;-81
2022/06/02 01:14:38;;;;;;;12.00;2.10;;;;;;;20.70;86.24;100415.81;5034351;28;20086;-83
2022/06/02 01:17:34;;;;;;;8.57;2.28;;;;;;;20.69;86.99;100418.72;5040657;28;20045;-84
2022/06/02 01:20:23;;;;;;;5.55;1.88;;;;;;;20.87;86.57;100411.41;5041814;28;20068;-81
2022/06/02 01:23:08;;;;;;;7.05;2.20;;;;;;;21.02;86.07;100413.63;5030580;28;20045;-84
2022/06/02 01:25:47;;;;;;;8.57;2.67;;;;;;;20.86;86.80;100409.75;5026453;28;20065;-82
2022/06/02 01:28:37;;;;;;;5.10;2.33;;;;;;;20.93;87.18;100420.41;5034330;28;20053;-85
2022/06/02 01:31:40;;;;;;;4.82;2.10;;;;;;;20.88;87.24;100413.00;5031995;28;20048;-84
2022/06/02 01:34:30;;;;;;;6.57;2.45;;;;;;;20.64;87.53;100405.97;5032460;28;20038;-83
2022/06/02 01:37:23;;;;;;;6.68;2.63;;;;;;;20.51;89.11;100408.84;5033944;28;20049;-85
2022/06/02 01:40:07;;;;;;;9.02;2.20;;;;;;;20.48;89.49;100407.41;5033923;28;20101;-83
2022/06/02 01:43:05;;;;;;;;;;;;;;;20.48;90.06;100412.78;5024111;28;20128;-84
2022/06/02 01:45:41;;;;;;;6.20;2.22;;;;;;;20.66;89.22;100409.22;5026001;28;19921;-82
2022/06/02 01:48:38;;;;;;;7.85;2.30;;;;;;;20.70;89.56;100413.13;5026677;28;20037;-82
2022/06/02 01:51:26;;;;;;;4.50;2.33;;;;;;;20.80;88.92;100413.38;5028170;28;20041;-82
2022/06/02 01:54:11;;;;;;;6.93;2.47;;;;;;;20.86;88.29;100419.69;5029555;28;20034;-82
2022/06/02 01:57:04;;;;;;;5.30;2.65;;;;;;;20.66;89.67;100420.00;5027891;28;20045;-82
2022/06/02 02:00:05;;;;;;;5.30;2.80;;;;;;;20.51;90.89;100419.63;5026011;28;20034;-82
2022/06/02 02:02:49;;;;;;;6.68;2.30;;;;;;;20.43;91.44;100420.75;5026131;28;20088;-82
2022/06/02 02:05:42;;;;;;;7.00;2.80;;;;;;;20.64;90.98;100422.13;5026263;28;20084;-83
2022/06/02 02:08:36;;;;;;;9.02;2.70;;;;;;;20.37;92.42;100412.78;5027547;28;20049;-83
2022/06/02 02:11:05;;;;;;;9.32;2.92;;;;;;;20.52;91.71;100413.16;5025271;28;20105;-87
2022/06/02 02:13:55;;;;;;;6.95;2.55;;;;;;;20.30;92.38;100417.41;5024043;28;20444;-82
2022/06/02 02:16:39;;;;;;;7.43;2.63;;;;;;;20.08;93.86;100412.47;5026670;28;20053;-83
2022/06/02 02:19:29;;;;;;;11.13;2.75;;;;;;;20.03;95.02;100412.34;5034855;28;20431;-85
2022/06/02 02:22:07;;;;;;;12.45;2.60;;;;;;;19.96;95.94;100419.69;5033550;28;20014;-86
2022/06/02 02:28:12;;;;;;;7.00;2.42;;;;;;;19.96;96.16;100416.16;5031299;28;20049;-83
2022/06/02 02:31:07;;;;;;;8.48;2.72;;;;;;;19.88;97.26;100411.94;5025277;28;20565;-82
2022/06/02 02:34:12;;;;;;;6.57;2.47;;;;;;;19.66;98.55;100410.72;5002774;28;20050;-82
2022/06/02 02:36:48;;;;;;;;;;;;;;;19.47;100.00;100415.28;5031210;28;20648;-81
2022/06/02 02:39:35;;;;;;;7.75;2.75;;;;;;;19.57;100.00;100428.22;5031925;28;20370;-83
2022/06/02 02:42:31;;;;;;;8.73;2.90;;;;;;;19.61;100.00;100426.72;5030566;28;20274;-82
2022/06/02 02:45:31;;;;;;;7.38;2.40;;;;;;;19.76;98.49;100429.84;5035137;28;20041;-84
2022/06/02 02:48:36;;;;;;;6.45;2.83;;;;;;;19.77;99.02;100426.13;5030255;28;20060;-85
2022/06/02 02:51:46;;;;;;;8.77;2.60;;;;;;;19.93;97.70;100430.91;4947608;28;20103;-86
2022/06/02 02:55:00;;;;;;;6.30;2.55;;;;;;;19.78;98.54;100435.84;5035527;28;20064;-85
2022/06/02 02:57:30;;;;;;;13.57;3.20;;;;;;;19.56;100.00;100443.50;5012503;28;20061;-86
2022/06/02 03:00:24;;;;;;;8.98;2.90;;;;;;;19.42;100.00;100443.88;5033061;28;20037;-84
2022/06/02 03:03:40;;;;;;;9.57;2.72;;;;;;;19.68;100.00;100440.91;5035474;28;20103;-84
2022/06/02 03:06:30;;;;;;;;;;;;;;;19.48;100.00;100449.19;5031830;28;20046;-83
2022/06/02 03:09:57;;;;;;;7.80;2.78;;;;;;;19.74;98.66;100439.19;5031171;28;19925;-84
2022/06/02 03:13:11;;;;;;;7.10;2.75;;;;;;;19.75;99.39;100439.00;5028557;28;20431;-83
2022/06/02 03:16:06;;;;;;;9.57;2.85;;;;;;;19.64;99.74;100452.34;5025495;28;20033;-85
2022/06/02 03:19:02;;;;;;;5.63;2.60;;;;;;;19.59;100.00;100453.00;5031427;28;20037;-85
2022/06/02 03:22:02;;;;;;;8.55;2.75;;;;;;;19.34;100.00;100447.63;5175439;22;20061;-87
2022/06/02 03:25:03;;;;;;;4.75;2.30;;;;;;;19.13;100.00;100448.00;5011915;28;20100;-84
2022/06/02 03:28:20;;;;;;;5.63;2.50;;;;;;;19.26;100.00;100460.50;5010873;28;20041;-86
2022/06/02 03:31:03;;;;;;;7.15;2.67;;;;;;;19.18;99.34;100463.47;4997530;28;20047;-85
2022/06/02 03:39:56;;;;;;;12.43;2.60;;;;;;;19.21;97.36;100479.16;5032908;28;20044;-86
2022/06/02 03:46:00;;;;;;;7.20;2.40;;;;;;;18.99;96.48;100490.28;5032674;28;20456;-83
2022/06/02 03:48:44;;;;;;;8.15;3.03;;;;;;;19.00;96.05;100489.25;5029776;28;20483;-85
2022/06/02 03:55:52;;;;;;;5.40;2.35;;;;;;;19.29;94.21;100498.50;4954472;29;20058;-85
2022/06/02 03:58:34;;;;;;;5.78;2.65;;;;;;;19.51;94.19;100515.13;4952781;29;20051;-86
2022/06/02 04:01:06;;;;;;;6.97;2.70;;;;;;;19.66;93.53;100520.97;4917909;29;20052;-89
2022/06/02 04:04:16;;;;;;;10.25;2.50;;;;;;;19.52;93.57;100524.84;4990289;22;20068;-85
2022/06/02 04:07:55;;;;;;;16.65;3.88;;;;;;;19.40;94.25;100522.03;5012690;28;20078;-85
2022/06/02 04:10:52;;;;;;;12.27;3.85;;;;;;;19.18;95.98;100519.91;5012911;28;20034;-87
2022/06/02 04:13:48;;;;;;;10.95;3.72;;;;;;;19.25;96.80;100523.38;5012147;28;20039;-84
2022/06/02 04:16:49;;;;;;;13.40;3.50;;;;;;;19.05;98.40;100524.34;5017462;28;20090;-85
2022/06/02 04:26:26;;;;;;;66.95;25.15;;;;;;;19.07;97.30;100533.00;4999796;28;20050;-85
2022/06/02 04:33:28;;;;;;;40.28;18.27;;;;;;;19.20;96.55;100540.13;5094512;22;20069;-84
2022/06/02 04:39:44;;;;;;;34.40;12.80;;;;;;;19.17;96.31;100547.81;5151629;23;20065;-85
2022/06/02 04:42:13;;;;;;;34.85;13.13;;;;;;;19.19;96.32;100548.44;5139007;22;20372;-87
2022/06/02 04:45:12;;;;;;;45.72;17.48;;;;;;;19.26;95.97;100547.31;5293713;23;20118;-86
2022/06/02 04:48:08;;;;;;;55.13;21.80;;;;;;;19.38;95.79;100552.84;5026538;28;20054;-87
2022/06/02 04:51:19;;;;;;;44.78;18.23;;;;;;;19.49;95.15;100552.97;5021144;22;20241;-87
2022/06/02 05:14:51;;;;;;;7.65;2.97;;;;;;;20.03;92.16;100544.19;5020210;28;20082;-85
2022/06/02 05:26:23;;;;;;;8.75;3.15;;;;;;;19.93;94.86;100538.50;5391260;22;20061;-89
2022/06/02 05:29:22;;;;;;;10.77;3.45;;;;;;;20.20;94.28;100540.91;5032640;28;20041;-84
2022/06/02 05:32:16;;;;;;;8.27;3.33;;;;;;;20.15;97.45;100535.38;5130682;22;20145;-84
2022/06/02 05:35:07;;;;;;;7.57;3.58;;;;;;;20.06;98.92;100535.66;4965437;29;20087;-85
2022/06/02 05:40:40;;;;;;;5.93;2.90;;;;;;;20.47;94.86;100532.34;2739205;22;20029;-91
2022/06/02 05:43:18;;;;;;;10.50;3.22;;;;;;;20.52;95.94;100540.53;5054110;22;20050;-88
2022/06/02 05:46:06;;;;;;;7.93;2.92;;;;;;;20.70;95.41;100528.94;5024233;28;20120;-87
2022/06/02 05:49:08;;;;;;;11.15;3.25;;;;;;;21.09;93.00;100530.22;5193600;22;20110;-89
2022/06/02 05:51:56;;;;;;;7.32;2.67;;;;;;;21.19;88.63;100541.28;5040138;28;20018;-85
2022/06/02 05:54:26;;;;;;;7.88;2.90;;;;;;;21.20;86.51;100551.03;5022821;28;20038;-87
2022/06/02 05:57:01;;;;;;;7.40;2.50;;;;;;;21.64;82.93;100547.00;5012955;28;20038;-86
2022/06/02 05:59:58;;;;;;;7.78;2.50;;;;;;;21.89;80.10;100550.31;5026874;28;20037;-86
2022/06/02 06:05:47;;;;;;;6.65;2.42;;;;;;;22.55;75.23;100543.63;5006707;28;20046;-88
2022/06/02 06:09:09;;;;;;;5.35;2.60;;;;;;;22.92;73.82;100550.34;5001298;23;20059;-88
2022/06/02 06:11:56;;;;;;;;;;;;;;;23.12;72.47;100545.28;4996091;28;20101;-86
2022/06/02 06:14:49;;;;;;;8.93;2.38;;;;;;;23.48;70.53;100551.34;5013330;28;19940;-85
2022/06/02 06:17:27;;;;;;;7.25;2.72;;;;;;;23.80;67.70;100546.97;5018091;28;20046;-87
2022/06/02 06:23:13;;;;;;;12.60;2.75;;;;;;;24.45;66.91;100557.09;5145866;22;20026;-88
2022/06/02 06:26:42;;;;;;;5.35;2.30;;;;;;;24.70;63.66;100568.22;5074374;22;20042;-87
2022/06/02 06:33:46;;;;;;;6.88;2.80;;;;;;;26.40;61.16;100572.69;5014534;28;20080;-88
2022/06/02 06:43:01;;;;;;;8.02;2.65;;;;;;;26.78;56.90;100582.34;4859638;26;20025;-85
2022/06/02 06:46:09;;;;;;;12.27;3.13;;;;;;;25.04;61.86;100596.84;5034776;28;20034;-85
2022/06/02 06:49:00;;;;;;;15.00;3.78;;;;;;;26.14;58.84;100579.88;5052671;23;20049;-82
2022/06/02 06:52:28;;;;;;;7.38;3.50;;;;;;;25.68;60.57;100583.38;4986125;28;20392;-87
2022/06/02 06:58:32;;;;;;;;;;;;;;;25.36;60.53;100583.31;4964091;29;20055;-89
2022/06/02 07:01:07;;;;;;;4.35;1.92;;;;;;;25.92;59.03;100591.97;4959639;29;20357;-82
2022/06/02 07:06:46;;;;;;;10.52;2.53;;;;;;;26.23;58.24;100592.97;5028580;28;20069;-85
2022/06/02 07:09:51;;;;;;;5.60;1.95;;;;;;;26.67;56.31;100586.13;4955556;28;20047;-91
2022/06/02 07:12:51;;;;;;;8.40;2.20;;;;;;;26.94;54.67;100597.69;4936990;29;20047;-85
2022/06/02 07:15:43;;;;;;;4.53;2.42;;;;;;;26.29;56.12;100586.50;4935124;29;20446;-85
2022/06/02 07:18:41;;;;;;;8.90;2.80;;;;;;;26.62;57.36;100596.97;4958561;28;20028;-90
2022/06/02 07:21:49;;;;;;;7.28;2.47;;;;;;;26.76;56.98;100592.69;5035942;28;20057;-88
2022/06/02 07:25:28;;;;;;;8.00;2.55;;;;;;;26.11;59.47;100587.75;5036670;28;20072;-86
2022/06/02 07:28:19;;;;;;;6.65;2.70;;;;;;;26.73;58.15;100593.22;5036543;28;20070;-85
2022/06/02 07:34:44;;;;;;;5.60;2.20;;;;;;;26.76;57.80;100589.97;5140444;22;20056;-87
2022/06/02 07:37:57;;;;;;;7.93;2.92;;;;;;;26.40;59.35;100588.19;5007570;28;20036;-89
2022/06/02 07:43:43;;;;;;;5.90;2.20;;;;;;;28.76;50.94;100603.03;5034369;28;20072;-89
2022/06/02 07:57:31;;;;;;;10.25;2.17;;;;;;;28.90;47.67;100612.22;5355421;22;20038;-88
2022/06/02 08:01:02;;;;;;;7.57;2.40;;;;;;;28.82;47.41;100617.47;5015576;28;20029;-87
2022/06/02 08:04:31;;;;;;;15.50;2.28;;;;;;;28.49;48.59;100627.13;4930281;29;20055;-86
2022/06/02 08:07:18;;;;;;;10.95;2.50;;;;;;;29.19;46.44;100637.75;4955156;29;20052;-87
2022/06/02 08:10:31;;;;;;;4.88;2.15;;;;;;;29.69;46.54;100635.78;5028228;23;20021;-90
2022/06/02 08:13:45;;;;;;;4.70;2.08;;;;;;;29.50;47.27;100637.56;4994806;28;20078;-87
2022/06/02 08:16:21;;;;;;;9.75;2.10;;;;;;;29.09;47.20;100639.69;5009870;28;20049;-83
2022/06/02 08:19:05;;;;;;;8.07;2.20;;;;;;;29.82;44.67;100639.75;5007153;28;20385;-85
2022/06/02 08:21:47;;;;;;;14.48;2.00;;;;;;;29.91;44.32;100641.63;5012670;28;20045;-80
2022/06/02 08:24:34;;;;;;;6.00;1.77;;;;;;;30.38;44.26;100627.22;4985394;28;20062;-79
2022/06/02 08:27:05;;;;;;;8.07;2.05;;;;;;;30.59;41.63;100641.50;4988715;28;20097;-83
2022/06/02 08:30:09;;;;;;;6.07;2.17;;;;;;;30.97;42.69;100634.19;5002778;28;20479;-82
2022/06/02 08:32:56;;;;;;;5.30;2.05;;;;;;;30.15;43.35;100630.75;4970826;28;20097;-81
2022/06/02 08:35:54;;;;;;;4.72;2.08;;;;;;;30.30;43.83;100625.09;5008403;28;20072;-81
2022/06/02 08:38:43;;;;;;;9.32;2.40;;;;;;;30.24;43.78;100632.53;5015409;28;20039;-79
2022/06/02 08:41:38;;;;;;;8.38;2.78;;;;;;;30.07;45.42;100621.22;5039644;22;20031;-84
2022/06/02 08:44:35;;;;;;;17.50;2.85;;;;;;;30.92;44.78;100643.28;4970094;28;20034;-85
2022/06/02 08:47:22;;;;;;;9.45;3.20;;;;;;;30.56;46.55;100645.63;4995749;28;20037;-83
2022/06/02 08:49:50;;;;;;;11.43;3.15;;;;;;;30.80;46.03;100651.06;4980666;28;20070;-79
2022/06/02 08:52:40;;;;;;;8.73;3.00;;;;;;;30.30;46.43;100636.03;4966630;28;20039;-83
2022/06/02 08:55:15;;;;;;;6.15;2.78;;;;;;;30.48;46.53;100639.97;4988970;28;20031;-82
2022/06/02 08:58:24;;;;;;;7.65;3.03;;;;;;;30.07;46.34;100632.16;4957239;28;20035;-87
2022/06/02 09:01:27;;;;;;;6.57;2.92;;;;;;;29.62;47.09;100635.28;4996601;23;20072;-84
2022/06/02 09:03:55;;;;;;;;;;;;;;;29.82;48.36;100635.13;5024662;28;20026;-83
2022/06/02 09:06:52;;;;;;;13.13;3.03;;;;;;;30.15;47.42;100628.81;5014065;28;19925;-84
2022/06/02 09:10:08;;;;;;;7.35;3.38;;;;;;;30.33;46.55;100637.41;5013169;28;20029;-84
2022/06/02 09:13:02;;;;;;;10.50;2.97;;;;;;;30.49;44.77;100634.19;4958115;28;20044;-84
2022/06/02 09:16:01;;;;;;;8.57;3.65;;;;;;;31.20;44.56;100634.13;4952658;29;20051;-82
2022/06/02 09:19:07;;;;;;;12.77;3.65;;;;;;;30.80;45.74;100634.66;4972379;29;20039;-85
2022/06/02 09:21:55;;;;;;;15.00;4.72;;;;;;;30.95;44.80;100642.69;4955904;29;20055;-84
2022/06/02 09:24:50;;;;;;;8.15;3.55;;;;;;;30.99;45.98;100643.72;4978694;28;20094;-86
2022/06/02 09:27:56;;;;;;;9.73;3.22;;;;;;;31.58;44.33;100650.59;4966049;28;20611;-86
2022/06/02 09:30:44;;;;;;;8.32;3.15;;;;;;;31.83;43.78;100652.91;4968389;28;20050;-86
2022/06/02 09:33:34;;;;;;;12.07;3.97;;;;;;;31.70;44.02;100659.16;4965466;28;20124;-84
2022/06/02 09:36:22;;;;;;;15.68;3.83;;;;;;;31.52;44.51;100660.78;4968931;28;20051;-88
2022/06/02 09:39:21;;;;;;;9.38;3.72;;;;;;;31.52;44.81;100662.75;4951363;28;20055;-84
2022/06/02 09:42:07;;;;;;;10.00;3.50;;;;;;;31.40;44.53;100654.94;4942127;29;20051;-86
2022/06/02 09:44:51;;;;;;;10.48;2.88;;;;;;;31.30;44.89;100665.22;5019298;28;20050;-91
2022/06/02 09:47:20;;;;;;;10.77;3.05;;;;;;;31.07;45.57;100658.69;5011089;28;20061;-91
2022/06/02 09:50:22;;;;;;;8.55;3.17;;;;;;;31.21;45.37;100646.72;5012841;28;20034;-91
2022/06/02 09:54:00;;;;;;;10.57;2.83;;;;;;;31.35;43.18;100654.22;5059546;23;20470;-90
2022/06/02 09:56:47;;;;;;;13.52;3.40;;;;;;;31.22;44.70;100647.56;5027321;28;20049;-91
2022/06/02 10:00:04;;;;;;;9.55;3.40;;;;;;;30.97;44.26;100654.19;5010564;28;20030;-90
2022/06/02 10:02:57;;;;;;;9.70;3.20;;;;;;;31.24;43.26;100648.88;5028462;28;20052;-90
2022/06/02 10:05:29;;;;;;;7.65;3.03;;;;;;;31.05;43.09;100648.06;5028093;28;20116;-85
2022/06/02 10:08:09;;;;;;;13.55;3.15;;;;;;;31.41;43.45;100644.78;5022214;28;20044;-87
2022/06/02 10:11:09;;;;;;;8.93;3.03;;;;;;;31.27;41.01;100650.19;5018052;28;20037;-84
2022/06/02 10:14:06;;;;;;;8.13;2.53;;;;;;;30.84;42.39;100646.66;4994089;28;20121;-84
2022/06/02 10:17:27;;;;;;;6.72;2.63;;;;;;;31.18;42.63;100641.84;5028960;28;20042;-82
2022/06/02 10:20:35;;;;;;;6.40;2.25;;;;;;;31.33;42.30;100640.78;4935573;29;20167;-86
2022/06/02 10:23:17;;;;;;;8.85;2.72;;;;;;;31.42;42.82;100647.22;4944003;29;20059;-86
2022/06/02 10:26:06;;;;;;;7.95;3.45;;;;;;;31.36;42.96;100637.47;4942902;29;20151;-84
2022/06/02 10:29:08;;;;;;;9.52;2.80;;;;;;;31.55;43.73;100637.50;4938894;29;20406;-86
2022/06/02 10:31:59;;;;;;;9.48;3.05;;;;;;;32.04;41.73;100637.78;4932953;29;20056;-83
2022/06/02 10:34:55;;;;;;;7.63;2.50;;;;;;;32.11;40.23;100632.72;4943920;29;20098;-87
2022/06/02 10:38:23;;;;;;;6.53;2.58;;;;;;;32.08;39.30;100643.47;4933917;29;20091;-85
2022/06/02 10:41:31;;;;;;;13.50;3.15;;;;;;;31.96;40.53;100641.16;4834114;29;20484;-85
2022/06/02 10:44:05;;;;;;;9.20;2.72;;;;;;;31.88;41.31;100639.13;4845706;29;20058;-84
2022/06/02 10:46:53;;;;;;;6.28;2.15;;;;;;;32.23;40.18;100624.78;4841757;29;20037;-83
2022/06/02 10:49:38;;;;;;;7.88;2.75;;;;;;;32.30;40.75;100621.66;4862433;29;20049;-84
2022/06/02 10:52:42;;;;;;;9.10;2.90;;;;;;;32.38;40.93;100615.47;4948373;29;20617;-86
2022/06/02 10:55:35;;;;;;;5.03;2.63;;;;;;;32.11;39.61;100616.25;4952218;29;20025;-84
2022/06/02 10:59:01;;;;;;;8.95;2.67;;;;;;;31.96;38.71;100613.75;4975149;28;20052;-82
2022/06/02 11:01:41;;;;;;;9.50;2.97;;;;;;;32.08;39.84;100600.41;5004559;22;20066;-84
2022/06/02 11:04:29;;;;;;;7.15;2.40;;;;;;;31.99;40.76;100595.88;4967478;28;20042;-80
2022/06/02 11:07:42;;;;;;;11.20;2.80;;;;;;;32.45;40.27;100593.13;4962340;28;20043;-85
2022/06/02 11:10:34;;;;;;;11.57;3.05;;;;;;;32.60;40.08;100590.06;4951108;29;20051;-84
2022/06/02 11:13:47;;;;;;;8.02;2.75;;;;;;;32.42;38.85;100590.94;4949367;28;20043;-85
2022/06/02 11:16:36;;;;;;;10.07;2.75;;;;;;;32.71;37.40;100596.97;4973312;28;20041;-83
2022/06/02 11:19:54;;;;;;;13.38;2.97;;;;;;;33.06;38.59;100585.19;4960259;28;20044;-85
2022/06/02 11:22:49;;;;;;;12.70;3.05;;;;;;;33.16;38.06;100582.25;4872300;29;20042;-84
2022/06/02 11:25:24;;;;;;;52.40;11.63;;;;;;;32.59;39.23;100574.72;4877939;29;20040;-84
2022/06/02 11:28:14;;;;;;;6.18;3.03;;;;;;;32.49;39.88;100578.44;4880158;29;20120;-83
2022/06/02 11:31:22;;;;;;;9.65;2.95;;;;;;;31.84;41.50;100564.09;4898047;29;20506;-85
2022/06/02 11:34:16;;;;;;;9.02;2.85;;;;;;;31.57;42.32;100564.00;4984257;28;20481;-84
2022/06/02 11:37:14;;;;;;;6.55;2.58;;;;;;;31.16;42.67;100550.94;4955278;29;20419;-84
2022/06/02 11:40:14;;;;;;;6.40;2.63;;;;;;;30.68;43.42;100557.66;4962155;28;20039;-82
2022/06/02 11:43:06;;;;;;;11.68;3.72;;;;;;;30.62;45.16;100550.63;4965356;28;20082;-85
2022/06/02 11:46:07;;;;;;;7.70;2.95;;;;;;;30.31;45.36;100549.34;4968268;28;20393;-86
2022/06/02 11:48:41;;;;;;;12.32;3.45;;;;;;;30.29;45.66;100552.38;4955606;28;20078;-86
2022/06/02 11:51:51;;;;;;;6.85;2.90;;;;;;;30.05;45.84;100543.38;4970365;28;20042;-82
2022/06/02 11:54:54;;;;;;;10.82;3.22;;;;;;;29.98;46.26;100540.97;4900858;29;20056;-83
2022/06/02 11:57:38;;;;;;;14.68;3.28;;;;;;;29.93;46.90;100543.75;4897931;29;20036;-81
2022/06/02 12:00:44;;;;;;;8.68;2.92;;;;;;;29.87;46.27;100544.09;4887452;29;20124;-84
2022/06/02 12:03:48;;;;;;;11.00;3.15;;;;;;;29.83;46.55;100535.66;4950616;23;20077;-88
2022/06/02 12:07:00;;;;;;;6.30;2.90;;;;;;;29.84;46.59;100529.09;4971910;28;20049;-84
2022/06/02 12:10:04;;;;;;;8.88;3.00;;;;;;;30.04;46.09;100528.06;5002894;28;20065;-85
2022/06/02 12:12:54;;;;;;;11.45;3.58;;;;;;;29.88;47.10;100530.16;5007286;23;20065;-84
2022/06/02 12:16:14;;;;;;;12.23;3.20;;;;;;;29.56;47.31;100529.91;5024162;28;20014;-88
2022/06/02 12:19:17;;;;;;;9.45;3.50;;;;;;;29.40;49.09;100529.19;4974282;28;20045;-89
2022/06/02 12:22:15;;;;;;;9.70;3.38;;;;;;;29.37;49.04;100518.03;5010721;28;20049;-84
2022/06/02 12:25:02;;;;;;;8.45;3.50;;;;;;;29.23;49.99;100512.41;5020739;28;20641;-86
2022/06/02 12:27:52;;;;;;;10.98;4.10;;;;;;;29.27;49.53;100518.16;5018720;28;20034;-83
2022/06/02 12:30:29;;;;;;;13.38;3.67;;;;;;;29.38;48.74;100504.09;5021621;28;20511;-86
2022/06/02 12:33:13;;;;;;;12.65;3.75;;;;;;;29.29;48.96;100516.75;5001856;28;20076;-85
2022/06/02 12:35:57;;;;;;;;;;;;;;;29.01;51.09;100503.81;5006325;28;20112;-86
2022/06/02 12:39:00;;;;;;;14.55;4.70;;;;;;;28.76;51.91;100507.56;5021474;28;19959;-87
2022/06/02 12:41:34;;;;;;;7.38;3.83;;;;;;;28.74;52.51;100504.28;5018885;28;20505;-84
2022/06/02 12:44:40;;;;;;;8.10;3.42;;;;;;;28.90;52.50;100508.53;5014408;28;20117;-86
2022/06/02 12:47:14;;;;;;;12.23;4.18;;;;;;;29.03;51.31;100507.94;5005683;28;20030;-85
2022/06/02 12:53:43;;;;;;;10.27;3.72;;;;;;;28.83;52.13;100513.53;5040523;28;20036;-83
2022/06/02 12:57:13;;;;;;;10.77;4.03;;;;;;;28.71;52.30;100526.66;5041848;28;20018;-90
2022/06/02 13:00:16;;;;;;;16.75;4.78;;;;;;;28.51;52.65;100521.28;5007127;28;20058;-89
2022/06/02 13:02:57;;;;;;;10.38;4.20;;;;;;;28.55;52.82;100515.00;5022129;28;20029;-82
2022/06/02 13:05:47;;;;;;;12.10;4.20;;;;;;;28.50;52.91;100515.03;5021436;28;20077;-85
2022/06/02 13:08:33;;;;;;;8.35;3.35;;;;;;;28.64;52.64;100507.03;5009714;28;20045;-89
2022/06/02 13:11:50;;;;;;;9.50;3.40;;;;;;;28.96;52.90;100514.78;5027906;28;20112;-89
2022/06/02 13:14:34;;;;;;;7.35;3.78;;;;;;;28.96;51.52;100507.44;5022339;28;20128;-83
2022/06/02 13:17:40;;;;;;;10.75;4.13;;;;;;;28.82;52.27;100511.06;5022283;28;20041;-83
2022/06/02 13:20:27;;;;;;;10.82;3.92;;;;;;;28.64;52.60;100509.75;5023569;28;20026;-88
2022/06/02 13:23:30;;;;;;;15.50;4.22;;;;;;;28.66;52.50;100510.34;5008313;28;20058;-84
2022/06/02 13:26:09;;;;;;;8.32;3.72;;;;;;;28.73;52.60;100508.94;5005904;28;20041;-79
2022/06/02 13:29:09;;;;;;;7.22;3.80;;;;;;;28.74;52.52;100504.28;5000939;28;20073;-84
2022/06/02 13:32:05;;;;;;;7.35;3.35;;;;;;;28.59;53.00;100507.91;5019241;28;20042;-82
2022/06/02 13:35:11;;;;;;;8.30;3.20;;;;;;;28.59;52.15;100502.44;5019804;28;20034;-84
2022/06/02 13:38:07;;;;;;;12.68;3.67;;;;;;;28.78;51.17;100497.16;4989685;28;20380;-81
2022/06/02 13:40:44;;;;;;;7.15;3.33;;;;;;;28.68;52.58;100489.03;5013535;28;20046;-82
2022/06/02 13:43:35;;;;;;;6.43;2.88;;;;;;;28.56;52.94;100483.91;5022572;28;20089;-82
2022/06/02 13:46:45;;;;;;;8.10;2.67;;;;;;;28.44;53.81;100480.69;5023958;28;20038;-83
2022/06/02 13:49:45;;;;;;;6.22;2.78;;;;;;;28.20;53.05;100485.19;5011609;28;20046;-80
2022/06/02 13:52:45;;;;;;;8.40;3.25;;;;;;;28.08;52.57;100471.88;4989708;28;20034;-81
2022/06/02 13:58:44;;;;;;;6.70;3.20;;;;;;;28.23;53.88;100471.00;5019633;28;20077;-83
2022/06/02 14:01:47;;;;;;;8.73;2.47;;;;;;;28.09;53.98;100468.06;4985876;28;20041;-82
2022/06/02 14:04:23;;;;;;;12.88;2.85;;;;;;;28.17;54.57;100470.19;5025835;28;20085;-83
2022/06/02 14:07:05;;;;;;;11.10;2.60;;;;;;;28.08;54.93;100463.69;5001761;28;20025;-83
2022/06/02 14:10:21;;;;;;;7.20;3.10;;;;;;;27.97;53.88;100464.81;5016543;28;20041;-85
2022/06/02 14:13:17;;;;;;;8.60;2.92;;;;;;;27.99;53.94;100457.16;5004472;28;20049;-85
2022/06/02 14:15:52;;;;;;;8.77;2.65;;;;;;;27.92;54.99;100451.19;5019977;28;20030;-83
2022/06/02 14:19:15;;;;;;;7.00;3.00;;;;;;;27.91;56.04;100448.75;5007645;28;20101;-83
2022/06/02 14:21:57;;;;;;;;;;;;;;;27.94;57.06;100461.84;4949718;29;20058;-84
2022/06/02 14:24:43;;;;;;;8.20;2.80;;;;;;;28.11;54.80;100457.69;4939093;29;19926;-83
2022/06/02 14:27:49;;;;;;;7.30;3.08;;;;;;;28.02;55.29;100442.97;4941626;29;20124;-83
2022/06/02 14:30:29;;;;;;;8.65;3.40;;;;;;;28.00;54.62;100447.09;4922030;29;20110;-82
2022/06/02 14:33:12;;;;;;;9.13;2.65;;;;;;;28.13;54.72;100450.06;4938532;29;20080;-83
2022/06/02 14:36:12;;;;;;;10.82;2.70;;;;;;;28.12;54.58;100448.44;4945341;29;20040;-85
2022/06/02 14:39:13;;;;;;;8.23;2.70;;;;;;;28.14;55.09;100443.50;5004727;23;20113;-84
2022/06/02 14:42:13;;;;;;;12.77;2.75;;;;;;;28.36;54.42;100445.03;4987800;28;20098;-83
2022/06/02 14:44:54;;;;;;;11.48;3.05;;;;;;;28.47;54.24;100435.72;5004322;28;20030;-82
2022/06/02 14:47:38;;;;;;;7.30;2.80;;;;;;;28.49;53.58;100430.78;4999592;28;20507;-84
2022/06/02 14:50:24;;;;;;;11.68;3.00;;;;;;;28.68;53.72;100431.75;5004963;28;20042;-86
2022/06/02 14:53:28;;;;;;;9.50;2.50;;;;;;;28.61;54.87;100428.50;5003165;28;20062;-82
2022/06/02 14:56:19;;;;;;;9.07;2.80;;;;;;;28.55;52.77;100430.47;4990632;28;20047;-86
2022/06/02 14:59:12;;;;;;;10.65;2.88;;;;;;;28.57;54.07;100432.91;4985619;28;20450;-87
2022/06/02 15:02:00;;;;;;;10.00;3.40;;;;;;;28.63;53.90;100437.25;5000636;28;20046;-84
2022/06/02 15:04:54;;;;;;;10.63;3.85;;;;;;;28.48;53.83;100431.88;4948323;28;20046;-84
2022/06/02 15:07:43;;;;;;;13.23;2.63;;;;;;;28.56;53.57;100431.28;5011508;28;20069;-83
2022/06/02 15:10:33;;;;;;;9.15;3.42;;;;;;;28.48;53.53;100427.22;5008996;28;20034;-85
2022/06/02 15:13:57;;;;;;;5.15;2.60;;;;;;;28.40;53.40;100432.47;4990370;28;20038;-86
2022/06/02 15:16:46;;;;;;;8.83;2.53;;;;;;;28.55;53.22;100429.66;4966161;28;20076;-82
2022/06/02 15:19:34;;;;;;;6.57;2.83;;;;;;;28.62;53.36;100430.16;4990815;28;20037;-84
2022/06/02 15:22:38;;;;;;;7.80;2.80;;;;;;;28.75;53.07;100426.81;4993994;28;20034;-81
2022/06/02 15:25:39;;;;;;;10.30;2.80;;;;;;;28.73;53.51;100418.09;4985445;28;20051;-86